createdAt,value
2023-02-19T00:01:58.931Z,14.03
2023-02-19T00:07:02.327Z,16.33
2023-02-19T00:12:07.874Z,14.73
2023-02-19T00:17:11.557Z,16.13
2023-02-19T00:22:15.009Z,18.43
2023-02-19T00:27:19.894Z,17.47
2023-02-19T00:32:23.417Z,17.97
2023-02-19T00:37:26.937Z,15.67
2023-02-19T00:42:31.863Z,19.43
2023-02-19T00:47:35.474Z,15.27
2023-02-19T00:52:39.000Z,19.55
2023-02-19T00:57:43.884Z,16.93
2023-02-19T01:02:47.240Z,19.37
2023-02-19T01:07:50.760Z,19.33
2023-02-19T01:12:55.562Z,17.07
2023-02-19T01:17:58.931Z,16.90
2023-02-19T01:23:02.573Z,14.67
2023-02-19T01:28:08.114Z,17.37
2023-02-19T01:33:11.602Z,16.27
2023-02-19T01:38:15.028Z,16.33
2023-02-19T01:43:19.863Z,19.57
2023-02-19T01:48:27.480Z,21.40
2023-02-19T01:53:35.459Z,22.27
2023-02-19T01:58:41.734Z,22.47
2023-02-19T02:03:48.993Z,20.10
2023-02-19T02:09:12.356Z,19.20
2023-02-19T02:14:18.921Z,19.83
2023-02-19T02:19:34.136Z,21.30
2023-02-19T02:24:51.538Z,19.38
2023-02-19T02:30:32.327Z,21.33
2023-02-19T02:35:41.211Z,20.50
2023-02-19T02:40:46.411Z,19.67
2023-02-19T02:45:51.259Z,23.47
2023-02-19T02:51:00.142Z,20.73
2023-02-19T02:56:04.960Z,20.90
2023-02-19T03:01:29.893Z,19.10
2023-02-19T03:06:36.768Z,20.45
2023-02-19T03:12:02.932Z,17.03
2023-02-19T03:17:30.623Z,18.53
2023-02-19T03:22:38.060Z,19.20
2023-02-19T03:27:45.096Z,16.20
2023-02-19T03:32:54.183Z,16.33
2023-02-19T03:38:05.999Z,17.73
2023-02-19T03:43:18.042Z,18.73
2023-02-19T03:48:36.005Z,17.00
2023-02-19T03:53:47.945Z,16.17
2023-02-19T03:58:58.112Z,19.17
2023-02-19T04:04:06.091Z,20.13
2023-02-19T04:09:13.048Z,20.13
2023-02-19T04:14:21.937Z,16.87
2023-02-19T04:19:30.407Z,18.97
2023-02-19T04:24:39.108Z,20.13
2023-02-19T04:29:42.733Z,20.60
2023-02-19T04:34:47.499Z,22.57
2023-02-19T04:39:51.038Z,19.47
2023-02-19T04:44:54.471Z,18.90
2023-02-19T04:49:59.425Z,17.77
2023-02-19T04:55:03.095Z,19.33
2023-02-19T05:00:08.920Z,20.80
2023-02-19T05:05:13.997Z,19.30
2023-02-19T05:10:17.695Z,19.90
2023-02-19T05:15:21.101Z,18.17
2023-02-19T05:20:25.895Z,19.97
2023-02-19T05:25:29.214Z,21.20
2023-02-19T05:30:32.826Z,19.87
2023-02-19T05:35:42.190Z,21.77
2023-02-19T05:40:45.974Z,20.43
2023-02-19T05:45:49.627Z,16.35
2023-02-19T05:50:54.524Z,20.10
2023-02-19T05:55:57.911Z,21.20
2023-02-19T06:01:01.447Z,21.57
2023-02-19T06:06:07.224Z,23.30
2023-02-19T06:11:11.227Z,23.33
2023-02-19T06:16:15.003Z,19.88
2023-02-19T06:21:20.190Z,21.03
2023-02-19T06:26:26.106Z,17.17
2023-02-19T06:31:29.864Z,14.67
2023-02-19T06:36:35.010Z,17.73
2023-02-19T06:41:38.540Z,19.27
2023-02-19T06:46:42.059Z,18.33
2023-02-19T06:51:46.898Z,17.23
2023-02-19T06:56:50.364Z,18.17
2023-02-19T07:01:53.871Z,14.00
2023-02-19T07:07:00.377Z,16.67
2023-02-19T07:12:03.920Z,15.97
2023-02-19T07:17:07.342Z,15.48
2023-02-19T07:22:12.326Z,13.60
2023-02-19T07:27:15.767Z,17.07
2023-02-19T07:32:20.776Z,15.60
2023-02-19T07:37:25.995Z,13.50
2023-02-19T07:42:29.433Z,12.80
2023-02-19T07:47:33.073Z,14.53
2023-02-19T07:52:37.983Z,16.97
2023-02-19T07:57:41.476Z,14.17
2023-02-19T08:03:03.485Z,15.90
2023-02-19T08:08:09.636Z,10.80
2023-02-19T08:13:28.400Z,15.63
2023-02-19T08:18:34.307Z,13.93
2023-02-19T08:23:39.509Z,14.17
2023-02-19T08:28:43.156Z,13.25
2023-02-19T08:33:46.652Z,12.07
2023-02-19T08:38:51.531Z,14.45
2023-02-19T08:43:55.102Z,13.02
2023-02-19T08:48:58.476Z,11.48
2023-02-19T08:54:05.465Z,15.93
2023-02-19T08:59:09.006Z,10.93
2023-02-19T09:04:14.073Z,15.05
2023-02-19T09:09:18.979Z,13.40
2023-02-19T09:14:22.387Z,14.27
2023-02-19T09:19:26.657Z,13.05
2023-02-19T09:24:31.642Z,15.50
2023-02-19T09:29:35.111Z,15.75
2023-02-19T09:34:39.185Z,16.33
2023-02-19T09:39:43.992Z,14.75
2023-02-19T09:44:49.971Z,15.68
2023-02-19T09:49:56.699Z,14.90
2023-02-19T09:55:06.567Z,16.65
2023-02-19T10:00:23.006Z,15.93
2023-02-19T10:06:15.893Z,14.03
2023-02-19T10:11:21.327Z,15.63
2023-02-19T10:16:28.231Z,13.33
2023-02-19T10:21:31.866Z,13.88
2023-02-19T10:26:37.017Z,14.30
2023-02-19T10:31:40.521Z,19.33
2023-02-19T10:36:46.432Z,16.15
2023-02-19T10:41:52.545Z,18.33
2023-02-19T10:46:59.231Z,17.15
2023-02-19T10:52:17.721Z,15.77
2023-02-19T10:57:35.471Z,15.30
2023-02-19T11:02:39.017Z,15.47
2023-02-19T11:07:47.537Z,15.77
2023-02-19T11:12:54.880Z,15.95
2023-02-19T11:18:01.494Z,17.63
2023-02-19T11:23:15.163Z,15.52
2023-02-19T11:28:32.602Z,17.17
2023-02-19T11:33:36.042Z,17.52
2023-02-19T11:38:39.432Z,15.60
2023-02-19T11:44:00.527Z,17.55
2023-02-19T11:49:18.934Z,16.92
2023-02-19T11:54:35.275Z,16.65
2023-02-19T11:59:49.480Z,16.70
2023-02-19T12:05:08.128Z,12.50
2023-02-19T12:10:19.489Z,17.15
2023-02-19T12:15:41.222Z,16.70
2023-02-19T12:20:54.507Z,17.53
2023-02-19T12:26:03.454Z,16.03
2023-02-19T12:31:36.924Z,16.27
2023-02-19T12:36:51.847Z,17.50
2023-02-19T12:47:08.078Z,19.30
2023-02-19T12:52:17.833Z,20.85
2023-02-19T12:57:25.227Z,21.17
2023-02-19T13:02:35.174Z,20.55
2023-02-19T13:07:42.746Z,15.60
2023-02-19T13:12:48.474Z,22.83
2023-02-19T13:17:56.495Z,18.65
2023-02-19T13:23:23.419Z,21.87
2023-02-19T13:28:42.354Z,22.50
2023-02-19T13:34:01.592Z,22.97
2023-02-19T13:39:07.739Z,21.53
2023-02-19T13:44:19.431Z,22.02
2023-02-19T13:49:41.495Z,21.20
2023-02-19T13:54:45.037Z,17.77
2023-02-19T13:59:48.649Z,23.33
2023-02-19T14:04:55.827Z,24.25
2023-02-19T14:10:01.958Z,21.20
2023-02-19T14:15:51.702Z,23.00
2023-02-19T14:21:08.869Z,22.17
2023-02-19T14:26:13.105Z,22.63
2023-02-19T14:31:25.737Z,22.30
2023-02-19T14:36:45.546Z,20.03
2023-02-19T14:41:52.126Z,19.87
2023-02-19T14:47:00.641Z,23.03
2023-02-19T14:52:09.885Z,22.50
2023-02-19T14:57:19.233Z,21.90
2023-02-19T15:02:24.217Z,21.90
2023-02-19T15:07:31.751Z,23.27
2023-02-19T15:12:43.536Z,22.17
2023-02-19T15:17:47.147Z,19.37
2023-02-19T15:22:53.043Z,23.63
2023-02-19T15:27:56.563Z,23.87
2023-02-19T15:33:01.830Z,25.33
2023-02-19T15:38:13.091Z,20.53
2023-02-19T15:43:25.921Z,21.50
2023-02-19T15:48:36.375Z,23.30
2023-02-19T15:53:48.902Z,19.07
2023-02-19T15:58:56.588Z,22.73
2023-02-19T16:04:00.483Z,26.37
2023-02-19T16:09:07.091Z,22.87
2023-02-19T16:14:25.531Z,22.70
2023-02-19T16:19:31.282Z,23.77
2023-02-19T16:24:38.521Z,26.47
2023-02-19T16:29:42.555Z,24.70
2023-02-19T16:34:48.335Z,22.13
2023-02-19T16:40:06.042Z,27.30
2023-02-19T16:45:09.990Z,26.13
2023-02-19T16:50:16.191Z,20.53
2023-02-19T16:55:21.098Z,27.10
2023-02-19T17:00:26.503Z,23.65
2023-02-19T17:05:32.598Z,23.85
2023-02-19T17:10:37.493Z,28.17
2023-02-19T17:15:41.056Z,31.80
2023-02-19T17:20:49.705Z,29.33
2023-02-19T17:25:54.527Z,26.67
2023-02-19T17:30:58.176Z,27.57
2023-02-19T17:36:01.791Z,31.90
2023-02-19T17:41:06.908Z,30.77
2023-02-19T17:46:15.391Z,33.30
2023-02-19T17:51:18.960Z,36.40
2023-02-19T17:56:26.842Z,29.83
2023-02-19T18:01:30.227Z,33.93
2023-02-19T18:06:33.843Z,37.63
2023-02-19T18:11:38.797Z,37.83
2023-02-19T18:16:49.858Z,38.47
2023-02-19T18:21:53.917Z,34.77
2023-02-19T18:26:58.876Z,36.90
2023-02-19T18:32:02.494Z,32.17
2023-02-19T18:37:06.042Z,32.87
2023-02-19T18:42:11.000Z,31.93
2023-02-19T18:47:14.544Z,32.87
2023-02-19T18:52:20.866Z,33.50
2023-02-19T18:57:27.611Z,32.77
2023-02-19T19:02:42.703Z,36.07
2023-02-19T19:07:52.936Z,37.90
2023-02-19T19:12:58.834Z,34.28
2023-02-19T19:18:03.054Z,32.87
2023-02-19T19:23:06.684Z,32.58
2023-02-19T19:28:11.581Z,34.77
2023-02-19T19:33:15.134Z,36.67
2023-02-19T19:38:18.960Z,34.30
2023-02-19T19:43:23.860Z,35.97
2023-02-19T19:48:28.017Z,37.70
2023-02-19T19:53:31.583Z,35.63
2023-02-19T19:58:37.613Z,38.67
2023-02-19T20:03:41.256Z,33.40
2023-02-19T20:08:44.801Z,40.73
2023-02-19T20:13:49.758Z,36.90
2023-02-19T20:18:53.372Z,39.37
2023-02-19T20:23:56.819Z,40.43
2023-02-19T20:29:01.749Z,41.22
2023-02-19T20:34:05.328Z,39.40
2023-02-19T20:39:08.864Z,42.10
2023-02-19T20:44:13.869Z,41.80
2023-02-19T20:49:18.971Z,38.87
2023-02-19T20:54:24.582Z,42.07
2023-02-19T20:59:35.088Z,44.60
2023-02-19T21:04:39.583Z,45.80
2023-02-19T21:09:43.044Z,38.95
2023-02-19T21:14:48.335Z,42.07
2023-02-19T21:19:51.890Z,44.03
2023-02-19T21:24:55.436Z,41.60
2023-02-19T21:30:00.477Z,44.70
2023-02-19T21:35:04.081Z,47.90
2023-02-19T21:40:08.970Z,46.80
2023-02-19T21:45:14.262Z,47.72
2023-02-19T21:50:17.948Z,48.87
2023-02-19T21:55:21.313Z,43.00
2023-02-19T22:00:26.262Z,39.43
2023-02-19T22:05:29.787Z,43.27
2023-02-19T22:10:33.419Z,38.90
2023-02-19T22:15:38.472Z,39.10
2023-02-19T22:20:41.851Z,39.13
2023-02-19T22:25:45.527Z,40.57
2023-02-19T22:30:50.321Z,37.03
2023-02-19T22:35:53.784Z,34.80
2023-02-19T22:40:57.160Z,38.93
2023-02-19T22:46:01.957Z,37.07
2023-02-19T22:51:05.726Z,36.80
2023-02-19T22:56:09.369Z,40.57
2023-02-19T23:01:17.013Z,39.80
2023-02-19T23:06:24.376Z,36.33
2023-02-19T23:11:30.408Z,35.87
2023-02-19T23:16:37.010Z,38.03
2023-02-19T23:21:40.721Z,42.90
2023-02-19T23:26:45.165Z,34.25
2023-02-19T23:31:50.250Z,34.90
2023-02-19T23:36:53.644Z,38.73
2023-02-19T23:41:58.716Z,36.27
2023-02-19T23:47:03.720Z,35.47
2023-02-19T23:52:07.364Z,35.57
2023-02-19T23:57:10.767Z,36.23
